createdAt,value
2022-12-22T00:00:33.675Z,1.10
2022-12-22T00:03:19.310Z,0.80
2022-12-22T00:06:06.003Z,1.20
2022-12-22T00:08:51.090Z,1.60
2022-12-22T00:11:36.703Z,1.35
2022-12-22T00:14:21.859Z,1.10
2022-12-22T00:17:07.675Z,1.20
2022-12-22T00:19:53.157Z,1.15
2022-12-22T00:22:41.882Z,1.10
2022-12-22T00:25:31.786Z,0.95
2022-12-22T00:28:16.816Z,1.48
2022-12-22T00:31:02.950Z,1.10
2022-12-22T00:33:48.539Z,1.30
2022-12-22T00:36:34.397Z,0.95
2022-12-22T00:39:21.193Z,1.20
2022-12-22T00:42:06.437Z,0.75
2022-12-22T00:44:51.662Z,1.35
2022-12-22T00:47:43.768Z,1.77
2022-12-22T00:50:30.198Z,1.13
2022-12-22T00:53:16.956Z,1.23
2022-12-22T00:56:04.284Z,1.27
2022-12-22T00:58:49.940Z,0.80
2022-12-22T01:01:35.148Z,1.00
2022-12-22T01:04:20.674Z,1.30
2022-12-22T01:07:05.727Z,1.13
2022-12-22T01:09:50.807Z,1.25
2022-12-22T01:12:40.691Z,1.27
2022-12-22T01:15:30.092Z,0.90
2022-12-22T01:18:15.735Z,0.90
2022-12-22T01:21:01.426Z,0.77
2022-12-22T01:23:47.128Z,0.95
2022-12-22T01:26:32.503Z,0.70
2022-12-22T01:29:19.254Z,0.73
2022-12-22T01:32:04.575Z,1.08
2022-12-22T01:34:49.801Z,1.30
2022-12-22T01:37:34.878Z,2.42
2022-12-22T01:40:20.069Z,0.80
2022-12-22T01:43:05.428Z,1.50
2022-12-22T01:45:55.181Z,0.60
2022-12-22T01:48:44.131Z,0.65
2022-12-22T01:51:33.847Z,0.60
2022-12-22T01:54:20.056Z,1.65
2022-12-22T01:57:07.207Z,0.93
2022-12-22T01:59:52.598Z,0.65
2022-12-22T02:02:41.939Z,1.02
2022-12-22T02:05:31.577Z,0.70
2022-12-22T02:08:25.681Z,0.85
2022-12-22T02:11:25.998Z,0.95
2022-12-22T02:14:30.412Z,1.10
2022-12-22T02:17:25.916Z,0.77
2022-12-22T02:20:34.775Z,0.50
2022-12-22T02:23:29.121Z,0.68
2022-12-22T02:29:08.009Z,2.15
2022-12-22T02:31:55.395Z,0.90
2022-12-22T02:34:40.672Z,0.77
2022-12-22T02:37:33.845Z,0.60
2022-12-22T02:40:27.458Z,1.02
2022-12-22T02:43:22.201Z,0.80
2022-12-22T02:46:18.398Z,0.82
2022-12-22T02:49:11.316Z,0.90
2022-12-22T02:52:01.489Z,0.85
2022-12-22T02:54:48.123Z,0.90
2022-12-22T02:57:35.616Z,1.00
2022-12-22T03:00:21.673Z,1.08
2022-12-22T03:03:08.856Z,1.20
2022-12-22T03:05:54.428Z,1.17
2022-12-22T03:08:39.624Z,2.33
2022-12-22T03:11:24.665Z,0.90
2022-12-22T03:14:09.790Z,1.00
2022-12-22T03:16:54.931Z,1.10
2022-12-22T03:19:41.765Z,1.38
2022-12-22T03:22:27.016Z,1.38
2022-12-22T03:25:12.159Z,1.33
2022-12-22T03:27:40.057Z,1.55
2022-12-22T03:30:09.271Z,1.88
2022-12-22T03:32:37.213Z,1.75
2022-12-22T03:35:07.469Z,1.52
2022-12-22T03:37:36.407Z,1.60
2022-12-22T03:40:08.746Z,2.03
2022-12-22T03:42:54.191Z,1.88
2022-12-22T03:45:40.211Z,2.00
2022-12-22T03:48:08.245Z,1.90
2022-12-22T03:50:39.142Z,2.25
2022-12-22T03:53:08.752Z,2.10
2022-12-22T03:55:36.790Z,2.33
2022-12-22T03:58:06.803Z,2.10
2022-12-22T04:00:36.780Z,2.15
2022-12-22T04:03:07.354Z,1.77
2022-12-22T04:05:35.472Z,2.75
2022-12-22T04:08:06.854Z,3.17
2022-12-22T04:10:54.080Z,2.42
2022-12-22T04:13:23.330Z,1.45
2022-12-22T04:15:52.464Z,2.45
2022-12-22T04:18:23.457Z,3.50
2022-12-22T04:20:52.320Z,3.00
2022-12-22T04:23:24.879Z,3.05
2022-12-22T04:25:53.026Z,2.25
2022-12-22T04:28:21.092Z,2.80
2022-12-22T04:30:50.836Z,2.75
2022-12-22T04:33:19.096Z,2.58
2022-12-22T04:35:47.099Z,2.50
2022-12-22T04:38:15.083Z,1.92
2022-12-22T04:40:44.780Z,2.70
2022-12-22T04:43:12.865Z,2.10
2022-12-22T04:45:40.870Z,1.55
2022-12-22T04:48:08.842Z,1.73
2022-12-22T04:50:36.807Z,2.38
2022-12-22T04:53:04.863Z,2.08
2022-12-22T04:55:32.775Z,2.50
2022-12-22T04:58:02.155Z,1.80
2022-12-22T05:00:30.138Z,2.28
2022-12-22T05:02:58.262Z,3.17
2022-12-22T05:05:26.282Z,2.58
2022-12-22T05:07:54.287Z,2.45
2022-12-22T05:10:22.355Z,2.25
2022-12-22T05:12:56.188Z,2.80
2022-12-22T05:17:54.531Z,2.42
2022-12-22T05:20:22.983Z,2.28
2022-12-22T05:22:51.066Z,2.10
2022-12-22T05:25:20.063Z,2.40
2022-12-22T05:27:50.599Z,2.80
2022-12-22T05:30:20.449Z,2.70
2022-12-22T05:32:50.134Z,2.80
2022-12-22T05:35:18.272Z,1.55
2022-12-22T05:37:46.177Z,2.83
2022-12-22T05:40:14.369Z,1.48
2022-12-22T05:42:42.434Z,2.00
2022-12-22T05:45:15.580Z,2.10
2022-12-22T05:47:44.390Z,2.03
2022-12-22T05:50:15.224Z,2.22
2022-12-22T05:52:43.344Z,1.98
2022-12-22T05:55:12.645Z,2.53
2022-12-22T05:57:41.049Z,2.63
2022-12-22T06:00:11.426Z,2.70
2022-12-22T06:02:39.697Z,3.00
2022-12-22T06:05:08.853Z,2.72
2022-12-22T06:07:38.465Z,2.03
2022-12-22T06:10:12.509Z,2.80
2022-12-22T06:12:41.394Z,3.22
2022-12-22T06:15:12.154Z,3.03
2022-12-22T06:17:44.779Z,2.30
2022-12-22T06:20:14.182Z,3.00
2022-12-22T06:22:43.548Z,3.35
2022-12-22T06:25:17.742Z,3.38
2022-12-22T06:27:46.083Z,3.53
2022-12-22T06:30:15.490Z,2.53
2022-12-22T06:32:43.898Z,2.60
2022-12-22T06:35:12.082Z,3.22
2022-12-22T06:37:40.205Z,3.03
2022-12-22T06:40:11.322Z,3.88
2022-12-22T06:43:05.733Z,3.53
2022-12-22T06:45:36.883Z,3.65
2022-12-22T06:48:05.761Z,3.05
2022-12-22T06:50:33.828Z,2.72
2022-12-22T06:53:01.982Z,4.18
2022-12-22T06:55:31.378Z,3.88
2022-12-22T06:57:59.333Z,2.55
2022-12-22T07:00:27.287Z,3.25
2022-12-22T07:02:55.606Z,2.60
2022-12-22T07:06:15.064Z,3.50
2022-12-22T07:08:43.315Z,2.80
2022-12-22T07:11:12.887Z,3.60
2022-12-22T07:13:40.844Z,2.58
2022-12-22T07:16:10.670Z,2.97
2022-12-22T07:18:40.556Z,4.32
2022-12-22T07:21:10.787Z,2.92
2022-12-22T07:23:39.124Z,5.35
2022-12-22T07:26:08.207Z,2.03
2022-12-22T07:28:39.003Z,4.00
2022-12-22T07:31:08.000Z,2.35
2022-12-22T07:33:36.151Z,3.38
2022-12-22T07:36:07.563Z,2.70
2022-12-22T07:38:40.267Z,2.35
2022-12-22T07:41:30.249Z,2.97
2022-12-22T07:43:59.874Z,4.60
2022-12-22T07:46:30.294Z,3.38
2022-12-22T07:49:15.476Z,10.80
2022-12-22T07:51:44.385Z,2.70
2022-12-22T07:54:14.592Z,3.05
2022-12-22T07:56:42.635Z,4.25
2022-12-22T07:59:12.626Z,2.95
2022-12-22T08:01:41.717Z,3.17
2022-12-22T08:04:09.959Z,3.40
2022-12-22T08:06:38.725Z,2.75
2022-12-22T08:09:08.804Z,3.67
2022-12-22T08:11:37.106Z,3.38
2022-12-22T08:14:05.218Z,2.65
2022-12-22T08:16:34.689Z,4.88
2022-12-22T08:19:02.757Z,4.25
2022-12-22T08:21:30.816Z,3.90
2022-12-22T08:23:58.922Z,3.05
2022-12-22T08:26:32.314Z,3.88
2022-12-22T08:29:04.311Z,2.92
2022-12-22T08:31:34.578Z,5.78
2022-12-22T08:34:07.277Z,3.13
2022-12-22T08:36:38.047Z,4.15
2022-12-22T08:39:06.137Z,3.50
2022-12-22T08:41:54.077Z,3.88
2022-12-22T08:44:24.169Z,2.85
2022-12-22T08:46:54.743Z,3.80
2022-12-22T08:49:23.366Z,3.03
2022-12-22T08:51:52.134Z,5.72
2022-12-22T08:54:20.671Z,2.53
2022-12-22T08:56:49.634Z,3.42
2022-12-22T08:59:18.214Z,3.53
2022-12-22T09:01:50.735Z,2.80
2022-12-22T09:04:24.495Z,4.03
2022-12-22T09:06:52.901Z,2.50
2022-12-22T09:09:21.444Z,3.85
2022-12-22T09:11:49.625Z,4.50
2022-12-22T09:14:18.419Z,5.53
2022-12-22T09:16:46.521Z,5.03
2022-12-22T09:19:14.675Z,3.88
2022-12-22T09:21:45.061Z,4.28
2022-12-22T09:24:14.557Z,4.97
2022-12-22T09:26:43.103Z,5.47
2022-12-22T09:29:11.262Z,3.63
2022-12-22T09:31:41.731Z,4.70
2022-12-22T09:34:15.340Z,4.35
2022-12-22T09:36:47.086Z,3.70
2022-12-22T09:39:16.171Z,3.47
2022-12-22T09:41:47.833Z,4.60
2022-12-22T09:44:22.373Z,5.85
2022-12-22T09:46:51.549Z,4.38
2022-12-22T09:49:20.942Z,4.13
2022-12-22T09:51:53.496Z,4.63
2022-12-22T09:54:22.863Z,4.40
2022-12-22T09:56:50.844Z,5.20
2022-12-22T09:59:20.877Z,4.53
2022-12-22T10:01:59.613Z,4.40
2022-12-22T10:04:42.475Z,4.78
2022-12-22T10:07:24.759Z,5.40
2022-12-22T10:09:52.874Z,4.57
2022-12-22T10:12:23.664Z,5.18
2022-12-22T10:14:53.607Z,5.15
2022-12-22T10:17:25.006Z,5.22
2022-12-22T10:19:55.158Z,6.00
2022-12-22T10:22:36.542Z,6.15
2022-12-22T10:25:08.293Z,4.38
2022-12-22T10:27:44.314Z,3.65
2022-12-22T10:30:22.995Z,4.40
2022-12-22T10:33:08.115Z,5.68
2022-12-22T10:35:51.616Z,7.30
2022-12-22T10:38:29.466Z,4.40
2022-12-22T10:41:02.324Z,4.88
2022-12-22T10:43:33.946Z,4.72
2022-12-22T10:46:03.546Z,2.80
2022-12-22T10:48:35.147Z,4.75
2022-12-22T10:51:06.002Z,2.13
2022-12-22T10:53:45.716Z,3.53
2022-12-22T10:56:22.280Z,2.22
2022-12-22T10:58:52.546Z,4.30
2022-12-22T11:01:32.094Z,3.97
2022-12-22T11:04:16.060Z,3.40
2022-12-22T11:06:45.531Z,3.08
2022-12-22T11:09:33.240Z,3.97
2022-12-22T11:12:14.657Z,3.67
2022-12-22T11:14:54.190Z,4.05
2022-12-22T11:17:27.901Z,4.80
2022-12-22T11:20:18.881Z,4.72
2022-12-22T11:22:54.161Z,6.18
2022-12-22T11:25:37.440Z,5.72
2022-12-22T11:28:23.735Z,5.10
2022-12-22T11:31:13.573Z,6.25
2022-12-22T11:33:55.231Z,5.18
2022-12-22T11:36:34.740Z,6.43
2022-12-22T11:39:09.308Z,5.65
2022-12-22T11:41:50.929Z,6.60
2022-12-22T11:44:36.106Z,6.22
2022-12-22T11:47:09.889Z,5.18
2022-12-22T11:52:30.189Z,8.10
2022-12-22T11:55:12.048Z,6.03
2022-12-22T11:57:53.651Z,5.65
2022-12-22T12:00:28.335Z,5.43
2022-12-22T12:03:27.634Z,5.63
2022-12-22T12:06:27.368Z,6.15
2022-12-22T12:09:11.324Z,6.43
2022-12-22T12:12:05.044Z,4.80
2022-12-22T12:14:40.594Z,4.47
2022-12-22T12:17:21.835Z,6.10
2022-12-22T12:20:10.532Z,7.07
2022-12-22T12:22:50.919Z,5.90
2022-12-22T12:25:30.379Z,5.38
2022-12-22T12:28:18.267Z,5.30
2022-12-22T12:30:53.663Z,6.78
2022-12-22T12:33:31.876Z,5.28
2022-12-22T12:36:07.590Z,7.05
2022-12-22T12:41:44.181Z,5.53
2022-12-22T12:44:15.099Z,6.43
2022-12-22T12:47:05.115Z,5.18
2022-12-22T12:50:27.280Z,6.10
2022-12-22T12:53:07.555Z,6.13
2022-12-22T12:56:01.799Z,6.07
2022-12-22T12:58:52.979Z,5.47
2022-12-22T13:02:01.923Z,6.72
2022-12-22T13:05:10.633Z,7.65
2022-12-22T13:08:21.244Z,5.03
2022-12-22T13:11:11.801Z,6.15
2022-12-22T13:14:02.092Z,6.20
2022-12-22T13:16:38.650Z,5.40
2022-12-22T13:19:27.018Z,6.63
2022-12-22T13:21:57.837Z,7.30
2022-12-22T13:24:30.185Z,7.53
2022-12-22T13:27:05.369Z,7.78
2022-12-22T13:29:43.808Z,6.15
2022-12-22T13:32:24.643Z,12.60
2022-12-22T13:35:30.457Z,10.20
2022-12-22T13:37:53.938Z,8.85
2022-12-22T13:43:19.114Z,8.95
2022-12-22T13:46:06.337Z,7.63
2022-12-22T13:54:29.822Z,7.70
2022-12-22T13:57:32.923Z,8.85
2022-12-22T14:00:00.971Z,12.20
2022-12-22T14:02:34.993Z,8.23
2022-12-22T14:05:10.251Z,8.80
2022-12-22T14:07:39.030Z,12.20
2022-12-22T14:10:09.279Z,7.75
2022-12-22T14:12:49.137Z,7.35
2022-12-22T14:15:24.899Z,7.30
2022-12-22T14:17:56.370Z,5.20
2022-12-22T14:20:28.413Z,6.57
2022-12-22T14:23:02.061Z,8.40
2022-12-22T14:25:34.535Z,6.43
2022-12-22T14:28:26.226Z,6.70
2022-12-22T14:30:59.591Z,6.10
2022-12-22T14:33:32.296Z,6.22
2022-12-22T14:36:46.547Z,6.88
2022-12-22T14:39:26.264Z,5.65
2022-12-22T14:41:56.837Z,6.10
2022-12-22T14:44:30.370Z,5.35
2022-12-22T14:47:16.549Z,5.43
2022-12-22T14:49:51.803Z,4.80
2022-12-22T14:52:27.674Z,5.22
2022-12-22T14:55:09.169Z,4.22
2022-12-22T14:57:47.050Z,4.07
2022-12-22T15:00:34.186Z,5.50
2022-12-22T15:03:04.795Z,4.57
2022-12-22T15:05:36.265Z,6.05
2022-12-22T15:08:07.975Z,4.53
2022-12-22T15:10:45.097Z,4.53
2022-12-22T15:13:22.630Z,5.22
2022-12-22T15:15:52.776Z,5.18
2022-12-22T15:18:25.932Z,5.68
2022-12-22T15:20:54.805Z,4.90
2022-12-22T15:23:22.854Z,4.85
2022-12-22T15:25:51.239Z,4.40
2022-12-22T15:28:19.341Z,6.13
2022-12-22T15:30:47.593Z,4.97
2022-12-22T15:33:19.945Z,4.55
2022-12-22T15:35:48.445Z,4.63
2022-12-22T15:38:21.564Z,5.80
2022-12-22T15:40:49.847Z,6.03
2022-12-22T15:43:54.051Z,5.47
2022-12-22T15:46:13.027Z,7.13
2022-12-22T15:48:43.237Z,5.70
2022-12-22T15:51:19.686Z,5.47
2022-12-22T15:53:58.028Z,5.05
2022-12-22T15:56:28.446Z,6.05
2022-12-22T15:58:56.985Z,4.03
2022-12-22T16:01:25.196Z,5.22
2022-12-22T16:03:55.239Z,6.05
2022-12-22T16:06:23.443Z,5.78
2022-12-22T16:08:54.851Z,5.25
2022-12-22T16:11:22.927Z,6.30
2022-12-22T16:13:52.584Z,5.20
2022-12-22T16:16:23.097Z,5.18
2022-12-22T16:18:52.175Z,5.57
2022-12-22T16:21:29.354Z,6.28
2022-12-22T16:23:58.777Z,5.15
2022-12-22T16:26:26.767Z,6.97
2022-12-22T16:28:55.739Z,4.88
2022-12-22T16:31:25.634Z,5.10
2022-12-22T16:33:53.959Z,5.18
2022-12-22T16:36:36.979Z,7.10
2022-12-22T16:39:12.021Z,5.97
2022-12-22T16:41:40.952Z,5.82
2022-12-22T16:44:10.935Z,5.78
2022-12-22T16:46:41.665Z,5.68
2022-12-22T16:49:10.551Z,5.35
2022-12-22T16:51:47.494Z,5.45
2022-12-22T16:54:15.930Z,6.82
2022-12-22T16:56:47.077Z,10.23
2022-12-22T16:59:16.788Z,5.32
2022-12-22T17:01:48.565Z,3.83
2022-12-22T17:04:20.030Z,5.28
2022-12-22T17:07:06.612Z,4.18
2022-12-22T17:09:43.504Z,4.10
2022-12-22T17:12:16.464Z,5.43
2022-12-22T17:14:44.679Z,3.90
2022-12-22T17:17:17.174Z,4.43
2022-12-22T17:19:45.686Z,5.05
2022-12-22T17:22:24.985Z,5.30
2022-12-22T17:24:55.373Z,3.67
2022-12-22T17:27:27.539Z,4.05
2022-12-22T17:29:56.176Z,3.30
2022-12-22T17:32:24.290Z,2.97
2022-12-22T17:34:52.254Z,3.55
2022-12-22T17:37:24.297Z,3.33
2022-12-22T17:39:57.276Z,4.68
2022-12-22T17:42:25.775Z,4.60
2022-12-22T17:44:53.766Z,3.90
2022-12-22T17:47:30.463Z,3.67
2022-12-22T17:49:59.421Z,3.72
2022-12-22T17:52:28.964Z,3.45
2022-12-22T17:54:57.062Z,2.45
2022-12-22T17:57:29.425Z,4.70
2022-12-22T17:59:59.452Z,4.45
2022-12-22T18:02:27.945Z,3.13
2022-12-22T18:05:00.662Z,3.50
2022-12-22T18:07:31.436Z,3.58
2022-12-22T18:18:08.930Z,3.65
2022-12-22T18:24:23.389Z,4.38
2022-12-22T18:26:51.696Z,3.85
2022-12-22T18:29:27.449Z,3.55
2022-12-22T18:35:43.588Z,4.03
2022-12-22T18:38:53.232Z,3.92
2022-12-22T18:42:17.912Z,3.72
2022-12-22T18:45:41.170Z,3.88
2022-12-22T18:54:26.943Z,4.15
2022-12-22T18:57:55.316Z,3.75
2022-12-22T19:00:32.278Z,4.03
2022-12-22T19:03:07.864Z,4.78
2022-12-22T19:05:54.563Z,4.28
2022-12-22T19:08:26.990Z,4.28
2022-12-22T19:11:02.211Z,3.97
2022-12-22T19:13:36.865Z,5.00
2022-12-22T19:16:05.912Z,4.05
2022-12-22T19:18:34.116Z,5.57
2022-12-22T19:21:02.597Z,4.75
2022-12-22T19:23:30.593Z,4.55
2022-12-22T19:26:08.519Z,4.40
2022-12-22T19:28:39.953Z,4.45
2022-12-22T19:31:10.205Z,4.43
2022-12-22T19:33:41.489Z,4.88
2022-12-22T19:36:17.516Z,5.18
2022-12-22T19:38:50.234Z,4.03
2022-12-22T19:41:46.967Z,5.00
2022-12-22T19:44:19.982Z,4.40
2022-12-22T19:46:48.759Z,3.95
2022-12-22T19:49:18.321Z,3.95
2022-12-22T19:51:46.891Z,3.33
2022-12-22T19:54:19.925Z,4.28
2022-12-22T19:56:52.608Z,2.72
2022-12-22T19:59:30.916Z,3.25
2022-12-22T20:02:02.287Z,3.58
2022-12-22T20:04:30.292Z,3.60
2022-12-22T20:06:58.259Z,2.95
2022-12-22T20:09:26.382Z,2.03
2022-12-22T20:11:55.818Z,2.30
2022-12-22T20:14:23.735Z,2.58
2022-12-22T20:16:51.732Z,2.28
2022-12-22T20:19:19.878Z,2.42
2022-12-22T20:21:47.860Z,1.65
2022-12-22T20:24:22.043Z,1.55
2022-12-22T20:26:54.465Z,1.27
2022-12-22T20:29:28.460Z,2.13
2022-12-22T20:31:56.536Z,2.22
2022-12-22T20:34:25.305Z,3.25
2022-12-22T20:36:53.352Z,1.70
2022-12-22T20:39:21.460Z,2.28
2022-12-22T20:41:54.530Z,2.92
2022-12-22T20:44:24.503Z,2.78
2022-12-22T20:46:52.810Z,2.30
2022-12-22T20:49:20.871Z,2.75
2022-12-22T20:51:48.823Z,1.30
2022-12-22T20:54:17.180Z,1.40
2022-12-22T20:56:45.683Z,1.60
2022-12-22T20:59:17.305Z,1.83
2022-12-22T21:01:51.502Z,0.90
2022-12-22T21:04:20.054Z,0.57
2022-12-22T21:06:51.294Z,0.70
2022-12-22T21:09:19.725Z,1.30
2022-12-22T21:11:47.818Z,0.70
2022-12-22T21:14:15.902Z,0.85
2022-12-22T21:16:44.698Z,1.30
2022-12-22T21:19:19.884Z,1.38
2022-12-22T21:21:48.945Z,1.13
2022-12-22T21:24:19.178Z,0.77
2022-12-22T21:26:50.393Z,1.17
2022-12-22T21:29:22.099Z,0.90
2022-12-22T21:31:50.452Z,0.60
2022-12-22T21:34:20.848Z,1.95
2022-12-22T21:36:54.940Z,1.35
2022-12-22T21:39:32.906Z,0.80
2022-12-22T21:42:08.632Z,0.32
2022-12-22T21:44:39.891Z,1.13
2022-12-22T21:47:07.862Z,0.65
2022-12-22T21:50:06.872Z,0.70
2022-12-22T21:52:35.202Z,0.50
2022-12-22T21:55:05.341Z,0.60
2022-12-22T21:57:33.254Z,0.80
2022-12-22T22:00:04.067Z,0.50
2022-12-22T22:02:34.719Z,0.60
2022-12-22T22:05:20.936Z,0.68
2022-12-22T22:07:50.992Z,0.60
2022-12-22T22:10:21.075Z,0.68
2022-12-22T22:12:52.399Z,0.40
2022-12-22T22:15:24.167Z,0.80
2022-12-22T22:17:52.470Z,0.90
2022-12-22T22:20:27.924Z,0.52
2022-12-22T22:22:57.387Z,0.65
2022-12-22T22:25:26.696Z,0.22
2022-12-22T22:27:55.246Z,1.65
2022-12-22T22:30:25.167Z,0.40
2022-12-22T22:32:53.725Z,0.60
2022-12-22T22:35:24.356Z,0.30
2022-12-22T22:37:52.773Z,0.88
2022-12-22T22:40:23.249Z,0.38
2022-12-22T22:42:52.044Z,0.30
2022-12-22T22:45:23.600Z,0.63
2022-12-22T22:47:58.565Z,0.55
2022-12-22T22:50:31.389Z,0.60
2022-12-22T22:53:00.731Z,0.47
2022-12-22T22:55:29.055Z,0.93
2022-12-22T22:58:01.985Z,0.43
2022-12-22T23:00:56.742Z,0.60
2022-12-22T23:03:25.554Z,0.28
2022-12-22T23:06:11.290Z,0.40
2022-12-22T23:08:40.273Z,0.60
2022-12-22T23:11:15.151Z,0.88
2022-12-22T23:13:45.699Z,0.50
2022-12-22T23:16:14.869Z,0.73
2022-12-22T23:18:43.567Z,0.40
2022-12-22T23:21:14.247Z,0.40
2022-12-22T23:23:51.558Z,0.20
2022-12-22T23:26:20.688Z,0.30
2022-12-22T23:28:49.492Z,0.82
2022-12-22T23:31:18.836Z,0.30
2022-12-22T23:33:47.492Z,0.50
2022-12-22T23:36:17.572Z,0.50
2022-12-22T23:38:45.993Z,0.68
2022-12-22T23:41:15.232Z,0.50
2022-12-22T23:43:43.422Z,0.43
2022-12-22T23:46:13.490Z,0.50
2022-12-22T23:48:42.178Z,0.47
2022-12-22T23:51:11.694Z,0.50
2022-12-22T23:53:42.276Z,0.60
2022-12-22T23:56:12.113Z,0.55
2022-12-22T23:58:40.342Z,1.00
